Observation data for Paducah on 04/26/2019      Previous  Date  Next       Current Mesonet Observations  Soil Data  Daily Summary Page  Observations in Plain Language
KPAD 260500Z 01003KT 15/11 A3014 RMK A01 T01490106  RH  078%=      5-min Rain = 0
KPAD 260505Z 01003KT 15/11 A3015 RMK A01 T01480106  RH  078%=      5-min Rain = 0
KPAD 260510Z 00002KT 15/11 A3015 RMK A01 T01480106  RH  078%=      5-min Rain = 0
KPAD 260515Z 35003KT 15/11 A3015 RMK A01 T01500106  RH  078%=      5-min Rain = 0
KPAD 260520Z 35002KT 15/11 A3015 RMK A01 T01490105  RH  078%=      5-min Rain = 0
KPAD 260525Z 35002KT 15/11 A3015 RMK A01 T01490105  RH  078%=      5-min Rain = 0
KPAD 260530Z 01002KT 15/11 A3015 RMK A01 T01500105  RH  077%=      5-min Rain = 0
KPAD 260535Z 02002KT 15/10 A3016 RMK A01 T01520103  RH  075%=      5-min Rain = 0
KPAD 260540Z 03003KT 16/10 A3016 RMK A01 T01550102  RH  073%=      5-min Rain = 0
KPAD 260545Z 03003KT 16/10 A3016 RMK A01 T01560101  RH  072%=      5-min Rain = 0
KPAD 260550Z 02003KT 16/10 A3016 RMK A01 T01560101  RH  072%=      5-min Rain = 0
KPAD 260555Z 00003KT 15/10 A3016 RMK A01 T01540101  RH  073%=      5-min Rain = 0
KPAD 260600Z 00003KT 15/10 A3016 RMK A01 T01510100  RH  074%=      5-min Rain = 0
KPAD 260605Z 00003KT 15/10 A3016 RMK A01 T01480100  RH  076%=      5-min Rain = 0
KPAD 260610Z 01004KT 15/10 A3016 RMK A01 T01460100  RH  077%=      5-min Rain = 0
KPAD 260615Z 00003KT 15/10 A3016 RMK A01 T01450100  RH  077%=      5-min Rain = 0
KPAD 260620Z 01004KT 14/10 A3016 RMK A01 T01430100  RH  078%=      5-min Rain = 0
KPAD 260625Z 00004KT 14/10 A3016 RMK A01 T01430099  RH  077%=      5-min Rain = 0
KPAD 260630Z 36003KT 14/10 A3017 RMK A01 T01420099  RH  078%=      5-min Rain = 0
KPAD 260635Z 01002KT 14/10 A3017 RMK A01 T01420099  RH  078%=      5-min Rain = 0
KPAD 260640Z 02002KT 14/10 A3017 RMK A01 T01430099  RH  077%=      5-min Rain = 0
KPAD 260645Z 03003KT 14/10 A3017 RMK A01 T01440098  RH  076%=      5-min Rain = 0
KPAD 260650Z 04003KT 15/10 A3017 RMK A01 T01460098  RH  075%=      5-min Rain = 0
KPAD 260655Z 05004KT 15/10 A3017 RMK A01 T01470097  RH  074%=      5-min Rain = 0
KPAD 260700Z 05004KT 15/10 A3017 RMK A01 T01480096  RH  074%=      5-min Rain = 0
KPAD 260705Z 06005KT 15/10 A3017 RMK A01 T01460096  RH  074%=      5-min Rain = 0
KPAD 260710Z 05005KT 14/10 A3017 RMK A01 T01440095  RH  075%=      5-min Rain = 0
KPAD 260715Z 04004KT 14/10 A3017 RMK A01 T01420095  RH  076%=      5-min Rain = 0
KPAD 260720Z 04004KT 14/10 A3017 RMK A01 T01420095  RH  076%=      5-min Rain = 0
KPAD 260725Z 03004KT 14/10 A3017 RMK A01 T01420095  RH  076%=      5-min Rain = 0
KPAD 260730Z 03003KT 14/10 A3017 RMK A01 T01400095  RH  076%=      5-min Rain = 0
KPAD 260735Z 04003KT 14/10 A3017 RMK A01 T01380095  RH  078%=      5-min Rain = 0
KPAD 260740Z 04003KT 14/10 A3017 RMK A01 T01380095  RH  078%=      5-min Rain = 0
KPAD 260745Z 04003KT 14/10 A3017 RMK A01 T01380095  RH  078%=      5-min Rain = 0
KPAD 260750Z 03002KT 14/10 A3017 RMK A01 T01380095  RH  078%=      5-min Rain = 0
KPAD 260755Z 03001KT 14/10 A3017 RMK A01 T01370095  RH  078%=      5-min Rain = 0
KPAD 260800Z 04002KT 14/10 A3017 RMK A01 T01360095  RH  079%=      5-min Rain = 0
KPAD 260805Z 04003KT 14/10 A3017 RMK A01 T01380095  RH  078%=      5-min Rain = 0
KPAD 260810Z 03003KT 14/10 A3018 RMK A01 T01400095  RH  077%=      5-min Rain = 0
KPAD 260815Z 01002KT 14/09 A3018 RMK A01 T01380094  RH  077%=      5-min Rain = 0
KPAD 260820Z 02002KT 14/09 A3018 RMK A01 T01360094  RH  078%=      5-min Rain = 0
KPAD 260825Z 01003KT 13/09 A3018 RMK A01 T01340093  RH  079%=      5-min Rain = 0
KPAD 260830Z 34002KT 13/09 A3019 RMK A01 T01320093  RH  080%=      5-min Rain = 0
KPAD 260835Z 35002KT 13/09 A3019 RMK A01 T01300093  RH  081%=      5-min Rain = 0
KPAD 260840Z 01002KT 13/09 A3019 RMK A01 T01290093  RH  081%=      5-min Rain = 0
KPAD 260845Z 02002KT 13/09 A3019 RMK A01 T01300094  RH  081%=      5-min Rain = 0
KPAD 260850Z 02003KT 13/09 A3019 RMK A01 T01310094  RH  081%=      5-min Rain = 0
KPAD 260855Z 35003KT 13/09 A3019 RMK A01 T01310093  RH  080%=      5-min Rain = 0
KPAD 260900Z 34003KT 13/09 A302 RMK A01 T01290093  RH  081%=      5-min Rain = 0
KPAD 260905Z 00003KT 13/09 A3019 RMK A01 T01280093  RH  081%=      5-min Rain = 0
KPAD 260910Z 00004KT 13/09 A302 RMK A01 T01270092  RH  082%=      5-min Rain = 0
KPAD 260915Z 36004KT 12/09 A302 RMK A01 T01240091  RH  083%=      5-min Rain = 0
KPAD 260920Z 36004KT 12/09 A302 RMK A01 T01210090  RH  084%=      5-min Rain = 0
KPAD 260925Z 34004KT 12/09 A302 RMK A01 T01190089  RH  084%=      5-min Rain = 0
KPAD 260930Z 33004KT 12/09 A3021 RMK A01 T01170089  RH  085%=      5-min Rain = 0
KPAD 260935Z 35004KT 12/09 A302 RMK A01 T01160089  RH  086%=      5-min Rain = 0
KPAD 260940Z 00004KT 12/09 A302 RMK A01 T01170091  RH  087%=      5-min Rain = 0
KPAD 260945Z 00004KT 12/09 A302 RMK A01 T01180091  RH  086%=      5-min Rain = 0
KPAD 260950Z 01004KT 12/09 A302 RMK A01 T01180091  RH  086%=      5-min Rain = 0
KPAD 260955Z 01002KT 12/09 A3021 RMK A01 T01180091  RH  086%=      5-min Rain = 0
KPAD 261000Z 03001KT 12/09 A3021 RMK A01 T01180091  RH  086%=      5-min Rain = 0
KPAD 261005Z 01002KT 12/09 A3021 RMK A01 T01180092  RH  086%=      5-min Rain = 0
KPAD 261010Z 33001KT 12/09 A3021 RMK A01 T01210094  RH  086%=      5-min Rain = 0
KPAD 261015Z 33000KT 12/09 A3021 RMK A01 T01210093  RH  086%=      5-min Rain = 0
KPAD 261020Z 32001KT 12/09 A3021 RMK A01 T01200092  RH  085%=      5-min Rain = 0
KPAD 261025Z 31002KT 12/09 A3021 RMK A01 T01190092  RH  086%=      5-min Rain = 0
KPAD 261030Z 32002KT 12/09 A3022 RMK A01 T01200093  RH  086%=      5-min Rain = 0
KPAD 261035Z 33001KT 12/09 A3022 RMK A01 T01220094  RH  086%=      5-min Rain = 0
KPAD 261040Z 31001KT 12/09 A3022 RMK A01 T01220094  RH  086%=      5-min Rain = 0
KPAD 261045Z 30000KT 12/10 A3022 RMK A01 T01230095  RH  086%=      5-min Rain = 0
KPAD 261050Z 00000KT 13/10 A3022 RMK A01 T01250097  RH  086%=      5-min Rain = 0
KPAD 261055Z 00000KT 13/10 A3022 RMK A01 T01270096  RH  084%=      5-min Rain = 0
KPAD 261100Z 00000KT 13/10 A3022 RMK A01 T01260096  RH  084%=      5-min Rain = 0
KPAD 261105Z 16001KT 13/10 A3022 RMK A01 T01300097  RH  083%=      5-min Rain = 0
KPAD 261110Z 17002KT 13/09 A3022 RMK A01 T01280094  RH  082%=      5-min Rain = 0
KPAD 261115Z 16002KT 13/09 A3022 RMK A01 T01280094  RH  082%=      5-min Rain = 0
KPAD 261120Z 16003KT 13/09 A3022 RMK A01 T01290094  RH  082%=      5-min Rain = 0
KPAD 261125Z 16004KT 12/09 A3021 RMK A01 T01240089  RH  081%=      5-min Rain = 0
KPAD 261130Z 16005KT 12/09 A3021 RMK A01 T01170086  RH  084%=      5-min Rain = 0
KPAD 261135Z 16005KT 12/09 A3021 RMK A01 T01160088  RH  085%=      5-min Rain = 0
KPAD 261140Z 17004KT 12/09 A3021 RMK A01 T01160088  RH  085%=      5-min Rain = 0
KPAD 261145Z 18003KT 11/09 A3022 RMK A01 T01130086  RH  085%=      5-min Rain = 0
KPAD 261150Z 18003KT 11/09 A3022 RMK A01 T01130087  RH  086%=      5-min Rain = 0
KPAD 261155Z 18003KT 11/09 A3022 RMK A01 T01130087  RH  087%=      5-min Rain = 0
KPAD 261200Z 19002KT 12/09 A3022 RMK A01 T01150089  RH  087%=      5-min Rain = 0
KPAD 261205Z 19002KT 12/09 A3022 RMK A01 T01160090  RH  087%=      5-min Rain = 0
KPAD 261210Z 20002KT 12/09 A3022 RMK A01 T01160090  RH  087%=      5-min Rain = 0
KPAD 261215Z 19003KT 12/09 A3022 RMK A01 T01170091  RH  087%=      5-min Rain = 0
KPAD 261220Z 18004KT 12/09 A3022 RMK A01 T01150089  RH  087%=      5-min Rain = 0
KPAD 261225Z 17004KT 12/09 A3022 RMK A01 T01160091  RH  088%=      5-min Rain = 0
KPAD 261230Z 18004KT 12/09 A3023 RMK A01 T01190094  RH  087%=      5-min Rain = 0
KPAD 261235Z 19003KT 12/10 A3023 RMK A01 T01210095  RH  087%=      5-min Rain = 0
KPAD 261240Z 19004KT 12/10 A3023 RMK A01 T01240097  RH  087%=      5-min Rain = 0
KPAD 261245Z 18006KT 12/10 A3022 RMK A01 T01240099  RH  087%=      5-min Rain = 0
KPAD 261250Z 18005KT 13/10 A3022 RMK A01 T01270101  RH  087%=      5-min Rain = 0
KPAD 261255Z 17006KT 13/10 A3022 RMK A01 T01280102  RH  087%=      5-min Rain = 0
KPAD 261300Z 17007KT 13/10 A3022 RMK A01 T01290103  RH  087%=      5-min Rain = 0
KPAD 261305Z 18006KT 13/10 A3022 RMK A01 T01300103  RH  086%=      5-min Rain = 0
KPAD 261310Z 18006KT 13/10 A3022 RMK A01 T01300102  RH  086%=      5-min Rain = 0
KPAD 261315Z 18007KT 13/10 A3022 RMK A01 T01300102  RH  086%=      5-min Rain = 0
KPAD 261320Z 19007KT 13/10 A3022 RMK A01 T01300102  RH  086%=      5-min Rain = 0
KPAD 261325Z 21005KT 13/10 A3024 RMK A01 T01290103  RH  087%=      5-min Rain = 0
KPAD 261330Z 20005KT 13/10 A3024 RMK A01 T01290103  RH  087%=      5-min Rain = 0
KPAD 261335Z 18007KT 13/10 A3023 RMK A01 T01290102  RH  087%=      5-min Rain = 0.01
KPAD 261340Z 19006KT 13/10 A3023 RMK A01 T01290103  RH  087%=      5-min Rain = 0
KPAD 261345Z 21007KT 13/11 A3024 RMK A01 T01290105  RH  088%=      5-min Rain = 0
KPAD 261350Z 23006KT 13/11 A3026 RMK A01 T01320107  RH  088%=      5-min Rain = 0.01
KPAD 261355Z 23005KT 14/11 A3026 RMK A01 T01360110  RH  087%=      5-min Rain = 0
KPAD 261400Z 23006KT 14/11 A3027 RMK A01 T01410113  RH  086%=      5-min Rain = 0
KPAD 261405Z 23005KT 14/11 A3027 RMK A01 T01440110  RH  083%=      5-min Rain = 0
KPAD 261410Z 23005KT 15/11 A3028 RMK A01 T01470110  RH  081%=      5-min Rain = 0
KPAD 261415Z 22005KT 15/11 A3028 RMK A01 T01480107  RH  079%=      5-min Rain = 0
KPAD 261420Z 22006KT 15/11 A3028 RMK A01 T01480108  RH  079%=      5-min Rain = 0
KPAD 261425Z 22006KT 15/11 A3028 RMK A01 T01490108  RH  079%=      5-min Rain = 0
KPAD 261430Z 21006KT 15/11 A3028 RMK A01 T01490106  RH  078%=      5-min Rain = 0
KPAD 261435Z 22006KT 15/10 A3028 RMK A01 T01500104  RH  076%=      5-min Rain = 0
KPAD 261440Z 22007KT 15/11 A3028 RMK A01 T01510106  RH  077%=      5-min Rain = 0
KPAD 261445Z 24008KT 15/10 A3029 RMK A01 T01510104  RH  076%=      5-min Rain = 0
KPAD 261450Z 24008KT 15/11 A3029 RMK A01 T01510106  RH  077%=      5-min Rain = 0
KPAD 261455Z 23008KT 15/11 A3029 RMK A01 T01510105  RH  076%=      5-min Rain = 0
KPAD 261500Z 21010KT 15/10 A3028 RMK A01 T01500099  RH  074%=      5-min Rain = 0
KPAD 261505Z 19010KT 15/10 A3027 RMK A01 T01490096  RH  073%=      5-min Rain = 0
KPAD 261510Z 18012KT 15/10 A3025 RMK A01 T01470095  RH  073%=      5-min Rain = 0
KPAD 261515Z 17013G18KT 15/09 A3024 RMK A01 T01470093  RH  072%=      5-min Rain = 0
KPAD 261520Z 18012G17KT 15/09 A3024 RMK A01 T01480086  RH  068%=      5-min Rain = 0
KPAD 261525Z 16007KT 15/09 A3025 RMK A01 T01500087  RH  068%=      5-min Rain = 0
KPAD 261530Z 15009G14KT 15/09 A3024 RMK A01 T01510090  RH  069%=      5-min Rain = 0
KPAD 261535Z 14013KT 15/09 A3023 RMK A01 T01510093  RH  070%=      5-min Rain = 0
KPAD 261540Z 13015G20KT 15/09 A3022 RMK A01 T01510089  RH  068%=      5-min Rain = 0
KPAD 261545Z 14010G16KT 15/09 A3023 RMK A01 T01530087  RH  066%=      5-min Rain = 0
KPAD 261550Z 15009KT 16/09 A3024 RMK A01 T01560088  RH  066%=      5-min Rain = 0
KPAD 261555Z 14011G16KT 16/09 A3023 RMK A01 T01570089  RH  066%=      5-min Rain = 0
KPAD 261600Z 14011KT 16/09 A3022 RMK A01 T01580089  RH  065%=      5-min Rain = 0
KPAD 261605Z 15010KT 16/09 A3022 RMK A01 T01610089  RH  064%=      5-min Rain = 0
KPAD 261610Z 14010KT 17/09 A3022 RMK A01 T01650092  RH  064%=      5-min Rain = 0
KPAD 261615Z 14011G17KT 17/09 A3022 RMK A01 T01690094  RH  063%=      5-min Rain = 0
KPAD 261620Z 14012G17KT 17/09 A3022 RMK A01 T01700089  RH  060%=      5-min Rain = 0
KPAD 261625Z 14012G17KT 18/09 A3022 RMK A01 T01770091  RH  059%=      5-min Rain = 0
KPAD 261630Z 14012KT 18/09 A3022 RMK A01 T01800085  RH  056%=      5-min Rain = 0
KPAD 261635Z 13013G18KT 18/08 A3022 RMK A01 T01800078  RH  053%=      5-min Rain = 0
KPAD 261640Z 13011G16KT 18/08 A3022 RMK A01 T01810083  RH  054%=      5-min Rain = 0
KPAD 261645Z 14014KT 19/08 A3022 RMK A01 T01890076  RH  049%=      5-min Rain = 0
KPAD 261650Z 14012KT 19/08 A3022 RMK A01 T01930076  RH  048%=      5-min Rain = 0
KPAD 261655Z 14011KT 20/07 A3022 RMK A01 T01990073  RH  045%=      5-min Rain = 0
KPAD 261700Z 14014KT 20/05 A3021 RMK A01 T01980053  RH  039%=      5-min Rain = 0
KPAD 261705Z 14014G20KT 20/04 A3021 RMK A01 T01980038  RH  035%=      5-min Rain = 0
KPAD 261710Z 13013KT 20/04 A3021 RMK A01 T02000039  RH  035%=      5-min Rain = 0
KPAD 261715Z 14012KT 20/05 A3021 RMK A01 T02040047  RH  037%=      5-min Rain = 0
KPAD 261720Z 14014G19KT 21/03 A3021 RMK A01 T02050034  RH  033%=      5-min Rain = 0
KPAD 261725Z 14013G18KT 21/04 A3021 RMK A01 T02050036  RH  033%=      5-min Rain = 0
KPAD 261730Z 14013KT 21/04 A3021 RMK A01 T02060043  RH  035%=      5-min Rain = 0
KPAD 261735Z 15014G19KT 21/04 A3021 RMK A01 T02070037  RH  033%=      5-min Rain = 0
KPAD 261740Z 14013G18KT 21/04 A3021 RMK A01 T02090039  RH  033%=      5-min Rain = 0
KPAD 261745Z 14012KT 21/04 A3021 RMK A01 T02100039  RH  033%=      5-min Rain = 0
KPAD 261750Z 14012KT 21/04 A302 RMK A01 T02130044  RH  034%=      5-min Rain = 0
KPAD 261755Z 15012G17KT 22/05 A302 RMK A01 T02150048  RH  034%=      5-min Rain = 0
KPAD 261800Z 15013KT 21/04 A302 RMK A01 T02130043  RH  033%=      5-min Rain = 0
KPAD 261805Z 15013G19KT 21/04 A302 RMK A01 T02090043  RH  034%=      5-min Rain = 0
KPAD 261810Z 14013KT 21/05 A3019 RMK A01 T02110049  RH  035%=      5-min Rain = 0
KPAD 261815Z 14012KT 21/05 A3019 RMK A01 T02140047  RH  034%=      5-min Rain = 0
KPAD 261820Z 14012G17KT 22/05 A3019 RMK A01 T02150049  RH  034%=      5-min Rain = 0
KPAD 261825Z 15012KT 22/05 A3019 RMK A01 T02170047  RH  033%=      5-min Rain = 0
KPAD 261830Z 14012KT 22/04 A3018 RMK A01 T02190043  RH  032%=      5-min Rain = 0
KPAD 261835Z 16013KT 22/04 A3018 RMK A01 T02180043  RH  032%=      5-min Rain = 0
KPAD 261840Z 16012G17KT 22/04 A3018 RMK A01 T02170041  RH  032%=      5-min Rain = 0
KPAD 261845Z 16014KT 22/04 A3018 RMK A01 T02170037  RH  031%=      5-min Rain = 0
KPAD 261850Z 14013G18KT 22/03 A3018 RMK A01 T02170034  RH  030%=      5-min Rain = 0
KPAD 261855Z 15012G18KT 22/04 A3017 RMK A01 T02190038  RH  031%=      5-min Rain = 0
KPAD 261900Z 15013KT 22/04 A3017 RMK A01 T02210038  RH  031%=      5-min Rain = 0
KPAD 261905Z 16012G18KT 22/04 A3017 RMK A01 T02200042  RH  032%=      5-min Rain = 0
KPAD 261910Z 15014G20KT 22/03 A3017 RMK A01 T02200033  RH  030%=      5-min Rain = 0
KPAD 261915Z 15014KT 22/04 A3017 RMK A01 T02200039  RH  031%=      5-min Rain = 0
KPAD 261920Z 16013G20KT 22/05 A3016 RMK A01 T02220046  RH  032%=      5-min Rain = 0
KPAD 261925Z 17014G21KT 22/04 A3016 RMK A01 T02200040  RH  032%=      5-min Rain = 0
KPAD 261930Z 17014KT 22/04 A3016 RMK A01 T02200044  RH  032%=      5-min Rain = 0
KPAD 261935Z 16013G19KT 22/05 A3015 RMK A01 T02220053  RH  034%=      5-min Rain = 0
KPAD 261940Z 17013G18KT 22/05 A3015 RMK A01 T02230050  RH  033%=      5-min Rain = 0
KPAD 261945Z 16012G19KT 22/05 A3015 RMK A01 T02220053  RH  034%=      5-min Rain = 0
KPAD 261950Z 17012KT 22/06 A3014 RMK A01 T02210057  RH  035%=      5-min Rain = 0
KPAD 261955Z 17013G21KT 22/06 A3014 RMK A01 T02220055  RH  035%=      5-min Rain = 0
KPAD 262000Z 17012G19KT 22/06 A3014 RMK A01 T02210055  RH  035%=      5-min Rain = 0
KPAD 262005Z 17013G19KT 22/06 A3014 RMK A01 T02220060  RH  036%=      5-min Rain = 0
KPAD 262010Z 16013G18KT 22/06 A3013 RMK A01 T02230062  RH  036%=      5-min Rain = 0
KPAD 262015Z 17013KT 22/06 A3013 RMK A01 T02240060  RH  035%=      5-min Rain = 0
KPAD 262020Z 16013G19KT 23/06 A3013 RMK A01 T02250058  RH  035%=      5-min Rain = 0
KPAD 262025Z 16013KT 22/05 A3012 RMK A01 T02230053  RH  034%=      5-min Rain = 0
KPAD 262030Z 17012G18KT 22/05 A3012 RMK A01 T02240054  RH  034%=      5-min Rain = 0
KPAD 262035Z 16014G19KT 23/06 A3012 RMK A01 T02260056  RH  034%=      5-min Rain = 0
KPAD 262040Z 15012KT 23/06 A3012 RMK A01 T02250061  RH  035%=      5-min Rain = 0
KPAD 262045Z 15012G17KT 23/06 A3011 RMK A01 T02270064  RH  036%=      5-min Rain = 0
KPAD 262050Z 16013G19KT 23/06 A3011 RMK A01 T02260056  RH  034%=      5-min Rain = 0
KPAD 262055Z 16013KT 23/06 A3011 RMK A01 T02280058  RH  034%=      5-min Rain = 0
KPAD 262100Z 17013KT 23/05 A301 RMK A01 T02280051  RH  032%=      5-min Rain = 0
KPAD 262105Z 18011G16KT 23/06 A301 RMK A01 T02280057  RH  034%=      5-min Rain = 0
KPAD 262110Z 16013G20KT 23/05 A301 RMK A01 T02300052  RH  032%=      5-min Rain = 0
KPAD 262115Z 16013G18KT 23/05 A3009 RMK A01 T02270047  RH  031%=      5-min Rain = 0
KPAD 262120Z 16012KT 23/05 A3009 RMK A01 T02290049  RH  032%=      5-min Rain = 0
KPAD 262125Z 16013KT 23/05 A3008 RMK A01 T02280051  RH  032%=      5-min Rain = 0
KPAD 262130Z 18012G18KT 23/06 A3008 RMK A01 T02280056  RH  034%=      5-min Rain = 0
KPAD 262135Z 17013G18KT 23/05 A3007 RMK A01 T02290051  RH  032%=      5-min Rain = 0
KPAD 262140Z 16013KT 23/06 A3007 RMK A01 T02280055  RH  033%=      5-min Rain = 0
KPAD 262145Z 18013G18KT 23/06 A3006 RMK A01 T02280059  RH  034%=      5-min Rain = 0
KPAD 262150Z 17013G18KT 23/05 A3006 RMK A01 T02290052  RH  032%=      5-min Rain = 0
KPAD 262155Z 16016G21KT 23/04 A3005 RMK A01 T02270041  RH  030%=      5-min Rain = 0
KPAD 262200Z 16013KT 23/04 A3005 RMK A01 T02270044  RH  031%=      5-min Rain = 0
KPAD 262205Z 17013G21KT 23/05 A3004 RMK A01 T02280048  RH  032%=      5-min Rain = 0
KPAD 262210Z 17014G20KT 23/05 A3004 RMK A01 T02270051  RH  033%=      5-min Rain = 0
KPAD 262215Z 16013G20KT 23/06 A3003 RMK A01 T02290058  RH  034%=      5-min Rain = 0
KPAD 262220Z 17012G19KT 23/06 A3003 RMK A01 T02300063  RH  035%=      5-min Rain = 0
KPAD 262225Z 17015G21KT 23/05 A3003 RMK A01 T02290053  RH  033%=      5-min Rain = 0
KPAD 262230Z 17013G18KT 23/06 A3003 RMK A01 T02280055  RH  033%=      5-min Rain = 0
KPAD 262235Z 17014G20KT 23/05 A3002 RMK A01 T02290052  RH  032%=      5-min Rain = 0
KPAD 262240Z 17015G20KT 23/04 A3002 RMK A01 T02270041  RH  030%=      5-min Rain = 0
KPAD 262245Z 17015G20KT 23/04 A3002 RMK A01 T02260043  RH  031%=      5-min Rain = 0
KPAD 262250Z 16015G20KT 23/05 A3001 RMK A01 T02260045  RH  031%=      5-min Rain = 0
KPAD 262255Z 16015G20KT 23/05 A3001 RMK A01 T02260048  RH  032%=      5-min Rain = 0
KPAD 262300Z 16015G20KT 23/05 A3001 RMK A01 T02270046  RH  032%=      5-min Rain = 0
KPAD 262305Z 16015G20KT 23/04 A3001 RMK A01 T02260042  RH  031%=      5-min Rain = 0
KPAD 262310Z 16015G20KT 23/05 A3001 RMK A01 T02260045  RH  031%=      5-min Rain = 0
KPAD 262315Z 17015G20KT 23/05 A30 RMK A01 T02260045  RH  031%=      5-min Rain = 0
KPAD 262320Z 17016G21KT 23/05 A30 RMK A01 T02250050  RH  033%=      5-min Rain = 0
KPAD 262325Z 17015G20KT 23/06 A2999 RMK A01 T02250057  RH  034%=      5-min Rain = 0
KPAD 262330Z 17016G23KT 23/06 A2999 RMK A01 T02250059  RH  035%=      5-min Rain = 0
KPAD 262335Z 17016KT 22/05 A2999 RMK A01 T02240050  RH  033%=      5-min Rain = 0
KPAD 262340Z 17016G23KT 22/05 A2999 RMK A01 T02230050  RH  033%=      5-min Rain = 0
KPAD 262345Z 17015G21KT 22/05 A2999 RMK A01 T02230052  RH  034%=      5-min Rain = 0
KPAD 262350Z 17013G19KT 22/06 A2999 RMK A01 T02230060  RH  036%=      5-min Rain = 0
KPAD 262355Z 17014KT 22/06 A2999 RMK A01 T02220060  RH  036%=      5-min Rain = 0
KPAD 270000Z 17014G19KT 22/06 A2999 RMK A01 T02210064  RH  037%=      5-min Rain = 0
KPAD 270005Z 17014G19KT 22/07 A2999 RMK A01 T02210065  RH  037%=      5-min Rain = 0
KPAD 270010Z 18013G20KT 22/06 A2999 RMK A01 T02200064  RH  037%=      5-min Rain = 0
KPAD 270015Z 17011KT 22/07 A2999 RMK A01 T02190066  RH  038%=      5-min Rain = 0
KPAD 270020Z 17012G17KT 22/06 A2998 RMK A01 T02180064  RH  038%=      5-min Rain = 0
KPAD 270025Z 17011G17KT 22/07 A2998 RMK A01 T02160068  RH  039%=      5-min Rain = 0
KPAD 270030Z 17011KT 22/07 A2998 RMK A01 T02150068  RH  039%=      5-min Rain = 0
KPAD 270035Z 17011KT 21/07 A2997 RMK A01 T02140070  RH  040%=      5-min Rain = 0
KPAD 270040Z 16011KT 21/07 A2997 RMK A01 T02120069  RH  040%=      5-min Rain = 0
KPAD 270045Z 16011KT 21/07 A2997 RMK A01 T02100071  RH  042%=      5-min Rain = 0
KPAD 270050Z 16010KT 21/07 A2997 RMK A01 T02080074  RH  043%=      5-min Rain = 0
KPAD 270055Z 16009KT 20/08 A2997 RMK A01 T02040077  RH  045%=      5-min Rain = 0
KPAD 270100Z 16008KT 20/08 A2997 RMK A01 T02000079  RH  047%=      5-min Rain = 0
KPAD 270105Z 16008KT 20/08 A2997 RMK A01 T01970081  RH  048%=      5-min Rain = 0
KPAD 270110Z 16007KT 19/08 A2997 RMK A01 T01940081  RH  049%=      5-min Rain = 0
KPAD 270115Z 16008KT 19/08 A2997 RMK A01 T01910081  RH  050%=      5-min Rain = 0
KPAD 270120Z 16007KT 19/08 A2997 RMK A01 T01890081  RH  051%=      5-min Rain = 0
KPAD 270125Z 16007KT 19/08 A2997 RMK A01 T01870082  RH  052%=      5-min Rain = 0
KPAD 270130Z 16007KT 18/08 A2997 RMK A01 T01830083  RH  053%=      5-min Rain = 0
KPAD 270135Z 16007KT 18/09 A2997 RMK A01 T01800085  RH  055%=      5-min Rain = 0
KPAD 270140Z 16006KT 18/09 A2997 RMK A01 T01760086  RH  057%=      5-min Rain = 0
KPAD 270145Z 16007KT 17/09 A2997 RMK A01 T01720089  RH  060%=      5-min Rain = 0
KPAD 270150Z 16007KT 17/09 A2996 RMK A01 T01700090  RH  061%=      5-min Rain = 0
KPAD 270155Z 17008KT 17/09 A2996 RMK A01 T01690091  RH  062%=      5-min Rain = 0
KPAD 270200Z 17008KT 17/09 A2996 RMK A01 T01680090  RH  062%=      5-min Rain = 0
KPAD 270205Z 17008KT 17/09 A2996 RMK A01 T01680089  RH  061%=      5-min Rain = 0
KPAD 270210Z 18008KT 17/09 A2996 RMK A01 T01680088  RH  061%=      5-min Rain = 0
KPAD 270215Z 18008KT 17/09 A2996 RMK A01 T01680087  RH  061%=      5-min Rain = 0
KPAD 270220Z 18008KT 17/09 A2996 RMK A01 T01670087  RH  061%=      5-min Rain = 0
KPAD 270225Z 18009KT 17/09 A2996 RMK A01 T01670087  RH  061%=      5-min Rain = 0
KPAD 270230Z 17008KT 17/09 A2996 RMK A01 T01670086  RH  061%=      5-min Rain = 0
KPAD 270235Z 17008KT 17/09 A2996 RMK A01 T01670086  RH  061%=      5-min Rain = 0
KPAD 270240Z 17008KT 17/09 A2996 RMK A01 T01660087  RH  061%=      5-min Rain = 0
KPAD 270245Z 17008KT 16/09 A2997 RMK A01 T01640088  RH  062%=      5-min Rain = 0
KPAD 270250Z 17008KT 17/09 A2997 RMK A01 T01650088  RH  062%=      5-min Rain = 0
KPAD 270255Z 17007KT 17/09 A2997 RMK A01 T01650088  RH  062%=      5-min Rain = 0
KPAD 270300Z 17008KT 17/09 A2997 RMK A01 T01650088  RH  062%=      5-min Rain = 0
KPAD 270305Z 18007KT 16/09 A2997 RMK A01 T01630089  RH  063%=      5-min Rain = 0
KPAD 270310Z 18009KT 16/09 A2997 RMK A01 T01610089  RH  064%=      5-min Rain = 0
KPAD 270315Z 18009KT 16/09 A2997 RMK A01 T01600089  RH  065%=      5-min Rain = 0
KPAD 270320Z 18009KT 16/09 A2997 RMK A01 T01590090  RH  065%=      5-min Rain = 0
KPAD 270325Z 18009KT 16/09 A2997 RMK A01 T01580090  RH  066%=      5-min Rain = 0
KPAD 270330Z 18010KT 16/09 A2996 RMK A01 T01590089  RH  065%=      5-min Rain = 0
KPAD 270335Z 18010KT 16/09 A2996 RMK A01 T01590089  RH  065%=      5-min Rain = 0
KPAD 270340Z 18009KT 16/09 A2996 RMK A01 T01590089  RH  065%=      5-min Rain = 0
KPAD 270345Z 19009KT 16/09 A2996 RMK A01 T01570090  RH  067%=      5-min Rain = 0
KPAD 270350Z 19011KT 16/09 A2996 RMK A01 T01550090  RH  067%=      5-min Rain = 0
KPAD 270355Z 19012KT 16/09 A2996 RMK A01 T01560090  RH  067%=      5-min Rain = 0
KPAD 270400Z 19012KT 16/09 A2996 RMK A01 T01560091  RH  067%=      5-min Rain = 0
KPAD 270405Z 19012KT 16/09 A2996 RMK A01 T01560091  RH  067%=      5-min Rain = 0
KPAD 270410Z 19012KT 16/09 A2996 RMK A01 T01560091  RH  068%=      5-min Rain = 0
KPAD 270415Z 19012KT 16/09 A2996 RMK A01 T01560092  RH  067%=      5-min Rain = 0
KPAD 270420Z 20012KT 16/09 A2996 RMK A01 T01560092  RH  068%=      5-min Rain = 0
KPAD 270425Z 26010G16KT 16/09 A2999 RMK A01 T01580093  RH  067%=      5-min Rain = 0
KPAD 270430Z 30014G21KT 16/10 A3003 RMK A01 T01580097  RH  069%=      5-min Rain = 0
KPAD 270435Z 22008KT 16/09 A30 RMK A01 T01580094  RH  068%=      5-min Rain = 0
KPAD 270440Z 26008KT 16/10 A3001 RMK A01 T01600095  RH  067%=      5-min Rain = 0
KPAD 270445Z 27008KT 16/10 A3001 RMK A01 T01590096  RH  068%=      5-min Rain = 0
KPAD 270450Z 25007KT 16/10 A3001 RMK A01 T01580097  RH  069%=      5-min Rain = 0
KPAD 270455Z 24007KT 16/10 A30 RMK A01 T01570098  RH  070%=      5-min Rain = 0

Page generated in 0.0171 seconds.